Terminal Aerodrome Forecast
Issued by NWS

Home | Current Version | Previous Version | Text Only | Print | Product List | Glossary On
Versions: 1 2 3 4 5 6 7 8 9 10 11 12 13 14 15 16 17 18 19 20 21 22 23 24 25 26 27 28 29 30 31 32 33 34 35
248
FTUS41 KOKX 300347 AAB
TAFGON
TAF AMD
KGON 300347Z 3004/3024 35012G21KT P6SM SCT050
     FM300600 35010KT P6SM SCT050
     FM300800 35005KT P6SM SKC
     FM301200 36007KT P6SM FEW250
     FM301600 24006KT P6SM FEW060 SCT150 BKN250=

USA.gov is the U.S. government's official web portal to all federal, state and local government web resources and services.